createdAt,value
2022-11-02T04:45:58.767Z,9.00
2022-11-02T04:48:25.441Z,9.00
2022-11-02T04:50:52.116Z,9.00
2022-11-02T04:53:18.811Z,8.90
2022-11-02T04:55:47.017Z,9.00
2022-11-02T04:58:13.722Z,9.00
2022-11-02T05:00:43.105Z,8.90
2022-11-02T05:03:12.377Z,8.80
2022-11-02T05:05:39.525Z,8.80
2022-11-02T05:08:06.710Z,8.80
2022-11-02T05:10:33.645Z,8.80
2022-11-02T05:13:01.089Z,8.80
2022-11-02T05:15:28.446Z,8.80
2022-11-02T05:17:55.368Z,8.80
2022-11-02T05:20:22.227Z,8.80
2022-11-02T05:22:48.916Z,8.70
2022-11-02T05:25:16.007Z,8.70
2022-11-02T05:27:42.697Z,8.60
2022-11-02T05:30:10.046Z,8.60
2022-11-02T05:32:36.798Z,8.50
2022-11-02T05:35:04.205Z,8.40
2022-11-02T05:37:30.992Z,8.30
2022-11-02T05:39:58.560Z,8.30
2022-11-02T05:42:25.858Z,8.20
2022-11-02T05:44:52.559Z,8.30
2022-11-02T05:47:19.358Z,8.20
2022-11-02T05:49:46.154Z,8.30
2022-11-02T05:52:12.865Z,8.30
2022-11-02T05:54:39.794Z,8.20
2022-11-02T05:57:06.555Z,8.30
2022-11-02T05:59:33.342Z,8.20
2022-11-02T06:02:00.100Z,8.30
2022-11-02T06:04:26.887Z,8.30
2022-11-02T06:06:53.632Z,8.30
2022-11-02T06:09:20.347Z,8.30
2022-11-02T06:11:47.010Z,8.40
2022-11-02T06:14:13.747Z,8.40
2022-11-02T06:16:40.411Z,8.40
2022-11-02T06:19:07.140Z,8.50
2022-11-02T06:21:33.914Z,8.40
2022-11-02T06:24:00.832Z,8.40
2022-11-02T06:26:27.512Z,8.40
2022-11-02T06:28:54.224Z,8.40
2022-11-02T06:31:20.979Z,8.30
2022-11-02T06:33:47.809Z,8.30
2022-11-02T06:36:14.599Z,8.40
2022-11-02T06:38:42.136Z,8.30
2022-11-02T06:41:09.363Z,8.30
2022-11-02T06:43:38.236Z,8.20
2022-11-02T06:46:05.758Z,8.30
2022-11-02T06:48:35.312Z,8.30
2022-11-02T06:51:04.007Z,8.40
2022-11-02T06:53:30.730Z,8.50
2022-11-02T06:55:58.899Z,8.60
2022-11-02T06:58:26.210Z,8.70
2022-11-02T07:01:04.365Z,8.70
2022-11-02T07:03:31.621Z,8.70
2022-11-02T07:05:59.630Z,8.70
2022-11-02T07:08:27.506Z,8.70
2022-11-02T07:10:55.008Z,8.80
2022-11-02T07:13:21.989Z,8.80
2022-11-02T07:15:53.267Z,8.90
2022-11-02T07:18:20.419Z,9.00
2022-11-02T07:20:47.114Z,9.10
2022-11-02T07:23:13.798Z,9.20
2022-11-02T07:25:41.501Z,9.30
2022-11-02T07:28:08.229Z,9.30
2022-11-02T07:30:35.495Z,9.40
2022-11-02T07:33:02.840Z,9.50
2022-11-02T07:35:30.101Z,9.40
2022-11-02T07:38:07.173Z,9.50
2022-11-02T07:40:36.041Z,9.60
2022-11-02T07:43:04.170Z,9.70
2022-11-02T07:45:31.782Z,9.60
2022-11-02T07:47:58.757Z,9.70
2022-11-02T07:50:27.192Z,9.90
2022-11-02T07:52:56.378Z,10.00
2022-11-02T07:55:28.672Z,10.20
2022-11-02T07:58:08.114Z,10.30
2022-11-02T08:00:38.229Z,10.40
2022-11-02T08:03:06.899Z,10.40
2022-11-02T08:05:35.729Z,10.50
2022-11-02T08:08:17.034Z,10.70
2022-11-02T08:10:44.960Z,10.80
2022-11-02T08:13:17.196Z,10.90
2022-11-02T08:15:44.097Z,11.00
2022-11-02T08:18:16.629Z,11.10
2022-11-02T08:20:45.822Z,11.20
2022-11-02T08:23:13.240Z,11.30
2022-11-02T08:25:40.696Z,11.30
2022-11-02T08:28:11.349Z,11.30
2022-11-02T08:30:38.777Z,11.20
2022-11-02T08:33:07.717Z,11.20
2022-11-02T08:35:37.491Z,11.40
2022-11-02T08:38:04.820Z,11.40
2022-11-02T08:40:32.070Z,11.40
2022-11-02T08:43:07.395Z,11.60
2022-11-02T08:46:12.555Z,11.70
2022-11-02T08:48:26.530Z,11.80
2022-11-02T08:50:53.559Z,11.90
2022-11-02T08:53:20.225Z,12.00
2022-11-02T08:55:47.052Z,12.10
2022-11-02T08:58:13.871Z,12.20
2022-11-02T09:00:40.741Z,12.40
2022-11-02T09:03:09.758Z,12.50
2022-11-02T09:05:44.631Z,12.60
2022-11-02T09:08:19.726Z,12.60
2022-11-02T09:10:50.283Z,12.70
2022-11-02T09:13:20.792Z,12.40
2022-11-02T09:15:50.741Z,12.40
2022-11-02T09:18:17.671Z,12.40
2022-11-02T09:20:44.446Z,12.50
2022-11-02T09:23:11.230Z,12.60
2022-11-02T09:25:37.971Z,12.70
2022-11-02T09:28:04.843Z,12.80
2022-11-02T09:30:31.662Z,12.90
2022-11-02T09:33:00.484Z,12.90
2022-11-02T09:35:29.618Z,13.00
2022-11-02T09:37:56.739Z,13.00
2022-11-02T09:40:29.337Z,13.10
2022-11-02T09:43:32.418Z,13.30
2022-11-02T09:46:24.146Z,13.40
2022-11-02T09:48:52.726Z,13.40
2022-11-02T09:51:22.482Z,13.50
2022-11-02T09:54:21.950Z,13.70
2022-11-02T09:56:50.993Z,13.80
2022-11-02T09:59:22.809Z,13.80
2022-11-02T10:02:04.291Z,13.80
2022-11-02T10:04:49.211Z,14.00
2022-11-02T10:07:21.670Z,14.00
2022-11-02T10:10:06.988Z,14.10
2022-11-02T10:12:58.905Z,14.30
2022-11-02T10:15:47.772Z,14.50
2022-11-02T10:18:23.497Z,14.70
2022-11-02T10:21:12.267Z,14.80
2022-11-02T10:23:41.742Z,14.90
2022-11-02T10:26:29.237Z,15.00
2022-11-02T10:29:23.151Z,15.00
2022-11-02T10:31:49.965Z,14.90
2022-11-02T10:34:22.822Z,14.90
2022-11-02T10:37:18.293Z,14.70
2022-11-02T10:40:12.056Z,14.60
2022-11-02T10:43:04.986Z,14.40
2022-11-02T10:45:32.727Z,14.40
2022-11-02T10:48:14.642Z,14.30
2022-11-02T10:50:56.470Z,14.30
2022-11-02T10:56:18.974Z,14.30
2022-11-02T10:58:49.472Z,14.30
2022-11-02T11:01:16.270Z,14.30
2022-11-02T11:03:57.792Z,14.30
2022-11-02T11:06:35.904Z,14.30
2022-11-02T11:09:21.875Z,14.30
2022-11-02T11:12:15.160Z,14.40
2022-11-02T11:20:38.247Z,14.60
2022-11-02T11:23:23.740Z,14.70
2022-11-02T11:25:58.928Z,14.80
2022-11-02T11:28:30.288Z,14.90
2022-11-02T11:31:10.776Z,15.00
2022-11-02T11:33:48.515Z,15.10
2022-11-02T11:36:28.664Z,15.10
2022-11-02T11:38:58.575Z,15.00
2022-11-02T11:41:25.784Z,15.00
2022-11-02T11:43:53.537Z,15.00
2022-11-02T11:46:20.274Z,15.10
2022-11-02T11:48:55.925Z,15.00
2022-11-02T11:51:34.561Z,15.10
2022-11-02T11:54:33.927Z,15.10
2022-11-02T12:00:27.467Z,15.20
2022-11-02T12:03:11.056Z,15.40
2022-11-02T12:06:10.528Z,15.30
2022-11-02T12:08:44.084Z,15.40
2022-11-02T12:11:14.932Z,15.40
2022-11-02T12:13:59.322Z,15.50
2022-11-02T12:16:54.993Z,15.60
2022-11-02T12:19:38.563Z,15.60
2022-11-02T12:22:17.204Z,15.40
2022-11-02T12:25:09.598Z,15.30
2022-11-02T12:27:57.329Z,15.30
2022-11-02T12:30:50.139Z,15.40
2022-11-02T12:34:05.265Z,15.60
2022-11-02T12:37:31.658Z,15.60
2022-11-02T12:40:21.296Z,15.70
2022-11-02T12:43:15.540Z,15.80
2022-11-02T12:45:55.035Z,15.80
2022-11-02T12:48:57.017Z,16.00
2022-11-02T12:51:35.686Z,16.40
2022-11-02T12:54:12.725Z,16.60
2022-11-02T12:56:47.121Z,16.90
2022-11-02T12:59:30.650Z,17.20
2022-11-02T13:02:19.751Z,17.40
2022-11-02T13:04:49.226Z,17.60
2022-11-02T13:07:21.784Z,17.80
2022-11-02T13:10:22.912Z,17.90
2022-11-02T13:12:55.280Z,18.00
2022-11-02T13:15:25.899Z,17.70
2022-11-02T13:17:54.960Z,17.60
2022-11-02T13:20:27.393Z,17.60
2022-11-02T13:23:23.235Z,17.40
2022-11-02T13:26:02.033Z,17.40
2022-11-02T13:28:47.252Z,17.40
2022-11-02T13:31:30.731Z,17.40
2022-11-02T13:34:01.520Z,17.40
2022-11-02T13:36:28.372Z,17.50
2022-11-02T13:39:09.052Z,17.60
2022-11-02T13:42:05.069Z,17.40
2022-11-02T13:44:58.176Z,17.40
2022-11-02T13:47:24.826Z,17.30
2022-11-02T13:49:53.875Z,17.50
2022-11-02T13:52:38.732Z,17.80
2022-11-02T13:55:08.515Z,18.00
2022-11-02T13:57:44.868Z,18.10
2022-11-02T14:00:38.421Z,17.90
2022-11-02T14:03:20.199Z,18.00
2022-11-02T14:06:01.095Z,18.20
2022-11-02T14:08:41.349Z,18.60
2022-11-02T14:11:11.170Z,18.60
2022-11-02T14:14:04.164Z,18.60
2022-11-02T14:16:50.265Z,18.70
2022-11-02T14:19:25.883Z,18.80
2022-11-02T14:21:52.679Z,18.80
2022-11-02T14:24:34.834Z,19.10
2022-11-02T14:27:19.088Z,19.60
2022-11-02T14:29:45.713Z,20.00
2022-11-02T14:32:21.194Z,20.10
2022-11-02T14:35:16.012Z,20.10
2022-11-02T14:37:45.699Z,20.10
2022-11-02T14:40:43.134Z,19.90
2022-11-02T14:43:37.479Z,19.70
2022-11-02T14:46:10.868Z,19.80
2022-11-02T14:48:50.428Z,19.90
2022-11-02T14:51:28.627Z,19.50
2022-11-02T14:54:18.085Z,18.80
2022-11-02T14:57:05.683Z,18.10
2022-11-02T14:59:39.739Z,17.60
2022-11-02T15:02:21.717Z,17.00
2022-11-02T15:04:54.215Z,16.60
2022-11-02T15:07:31.159Z,16.20
2022-11-02T15:10:17.383Z,15.90
2022-11-02T15:12:46.786Z,15.70
2022-11-02T15:15:33.132Z,15.50
2022-11-02T15:18:00.058Z,15.40
2022-11-02T15:20:30.036Z,15.20
2022-11-02T15:23:09.217Z,15.00
2022-11-02T15:25:49.201Z,14.90
2022-11-02T15:28:20.409Z,14.70
2022-11-02T15:31:14.964Z,14.60
2022-11-02T15:33:49.292Z,14.60
2022-11-02T15:36:30.361Z,14.40
2022-11-02T15:38:57.870Z,14.10
2022-11-02T15:41:27.682Z,13.90
2022-11-02T15:44:28.073Z,13.80
2022-11-02T15:47:03.809Z,13.80
2022-11-02T15:50:01.347Z,13.70
2022-11-02T15:53:21.696Z,13.50
2022-11-02T15:56:05.291Z,13.30
2022-11-02T15:59:05.141Z,13.20
2022-11-02T16:01:31.893Z,13.10
2022-11-02T16:04:02.247Z,13.00
2022-11-02T16:06:36.914Z,12.90
2022-11-02T16:09:33.966Z,12.80
2022-11-02T16:12:11.112Z,12.70
2022-11-02T16:14:37.904Z,12.60
2022-11-02T16:17:04.604Z,12.50
2022-11-02T16:19:31.330Z,12.40
2022-11-02T16:22:01.353Z,12.30
2022-11-02T16:24:29.373Z,12.20
2022-11-02T16:26:56.239Z,12.10
2022-11-02T16:29:32.066Z,12.10
2022-11-02T16:31:58.832Z,12.00
2022-11-02T16:34:29.638Z,12.00
2022-11-02T16:36:57.752Z,11.90
2022-11-02T16:39:28.945Z,11.80
2022-11-02T16:41:58.027Z,11.70
2022-11-02T16:44:32.812Z,11.50
2022-11-02T16:47:09.392Z,11.50
2022-11-02T16:49:57.512Z,11.40
2022-11-02T16:52:54.812Z,11.30
2022-11-02T16:55:42.407Z,11.20
2022-11-02T16:58:31.891Z,11.30
2022-11-02T17:01:03.863Z,11.20
2022-11-02T17:03:32.292Z,11.10
2022-11-02T17:06:01.932Z,11.00
2022-11-02T17:08:37.354Z,10.90
2022-11-02T17:11:06.456Z,10.90
2022-11-02T17:13:43.254Z,10.90
2022-11-02T17:16:11.754Z,10.80
2022-11-02T17:18:39.047Z,10.80
2022-11-02T17:21:28.905Z,10.70
2022-11-02T17:23:57.576Z,10.70
2022-11-02T17:26:24.855Z,10.70
2022-11-02T17:28:51.537Z,10.60
2022-11-02T17:31:44.499Z,10.60
2022-11-02T17:34:20.517Z,10.60
2022-11-02T17:36:49.084Z,10.50
2022-11-02T17:39:17.647Z,10.50
2022-11-02T17:42:05.377Z,10.40
2022-11-02T17:44:32.049Z,10.40
2022-11-02T17:46:59.128Z,10.30
2022-11-02T17:49:25.754Z,10.10
2022-11-02T17:51:52.505Z,10.00
2022-11-02T17:54:19.136Z,9.90
2022-11-02T17:56:45.799Z,9.90
2022-11-02T17:59:12.425Z,9.90
2022-11-02T18:01:39.312Z,9.90
2022-11-02T18:04:06.071Z,9.80
2022-11-02T18:06:32.716Z,9.80
2022-11-02T18:09:11.570Z,9.70
2022-11-02T18:11:38.280Z,9.60
2022-11-02T18:14:05.228Z,9.60
2022-11-02T18:16:32.271Z,9.60
2022-11-02T18:18:58.962Z,9.60
2022-11-02T18:21:25.600Z,9.50
2022-11-02T18:23:52.308Z,9.50
2022-11-02T18:26:19.029Z,9.50
2022-11-02T18:28:45.763Z,9.40
2022-11-02T18:31:12.683Z,9.30
2022-11-02T18:33:39.386Z,9.30
2022-11-02T18:36:08.552Z,9.20
2022-11-02T18:38:35.956Z,9.20
2022-11-02T18:41:04.516Z,9.20
2022-11-02T18:43:31.200Z,9.20
2022-11-02T18:46:00.555Z,9.20
2022-11-02T18:48:27.235Z,9.20
2022-11-02T18:50:53.896Z,9.10
2022-11-02T18:53:20.545Z,9.10
2022-11-02T18:55:47.175Z,9.10
2022-11-02T18:58:13.845Z,9.00
2022-11-02T19:00:40.525Z,9.00
2022-11-02T19:03:07.220Z,8.90
2022-11-02T19:05:52.372Z,8.90
2022-11-02T19:08:37.796Z,8.80
2022-11-02T19:11:04.583Z,8.70
2022-11-02T19:13:31.224Z,8.70
2022-11-02T19:16:00.163Z,8.70
2022-11-02T19:18:26.812Z,8.70
2022-11-02T19:20:53.508Z,8.60
2022-11-02T19:23:20.200Z,8.60
2022-11-02T19:25:51.460Z,8.60
2022-11-02T19:28:18.148Z,8.60
2022-11-02T19:30:44.812Z,8.50
2022-11-02T19:33:11.451Z,8.50
2022-11-02T19:35:38.088Z,8.50
2022-11-02T19:38:04.744Z,8.50
2022-11-02T19:40:31.410Z,8.50
2022-11-02T19:42:58.085Z,8.50
2022-11-02T19:45:24.727Z,8.40
2022-11-02T19:47:51.352Z,8.40
2022-11-02T19:50:18.152Z,8.50
2022-11-02T19:52:46.296Z,8.40
2022-11-02T19:55:12.939Z,8.50
2022-11-02T19:57:39.679Z,8.40
2022-11-02T20:00:06.968Z,8.20
2022-11-02T20:02:33.784Z,8.10
2022-11-02T20:05:00.506Z,8.10
2022-11-02T20:07:27.133Z,8.20
2022-11-02T20:09:57.156Z,8.20
2022-11-02T20:12:26.268Z,8.10
2022-11-02T20:14:52.985Z,8.10
2022-11-02T20:17:51.970Z,8.00
2022-11-02T20:20:07.181Z,7.90
2022-11-02T20:22:35.341Z,7.90
2022-11-02T20:25:01.990Z,8.00
2022-11-02T20:27:28.713Z,8.00
2022-11-02T20:29:55.416Z,8.00
2022-11-02T20:32:25.114Z,8.00
2022-11-02T20:34:51.856Z,8.00
2022-11-02T20:37:18.507Z,8.00
2022-11-02T20:39:45.520Z,8.00
2022-11-02T20:42:12.174Z,8.00
2022-11-02T20:44:38.833Z,8.00
2022-11-02T20:47:05.463Z,8.00
2022-11-02T20:52:21.945Z,8.00
2022-11-02T20:54:48.676Z,8.00
2022-11-02T20:57:15.320Z,7.80
2022-11-02T20:59:42.058Z,7.80
2022-11-02T21:02:12.401Z,7.70
2022-11-02T21:04:39.218Z,7.70
2022-11-02T21:07:05.904Z,7.70
2022-11-02T21:09:32.615Z,7.70
2022-11-02T21:12:18.123Z,7.70
2022-11-02T21:14:44.785Z,7.70
2022-11-02T21:17:11.429Z,7.60
2022-11-02T21:19:38.077Z,7.50
2022-11-02T21:22:04.767Z,7.40
2022-11-02T21:24:31.411Z,7.40
2022-11-02T21:26:58.180Z,7.50
2022-11-02T21:29:24.908Z,7.60
2022-11-02T21:31:51.558Z,7.60
2022-11-02T21:34:18.251Z,7.60
2022-11-02T21:36:44.902Z,7.60
2022-11-02T21:39:11.537Z,7.50
2022-11-02T21:41:38.969Z,7.60
2022-11-02T21:44:09.026Z,7.60
2022-11-02T21:46:35.945Z,7.60
2022-11-02T21:49:03.222Z,7.60
2022-11-02T21:51:30.000Z,7.50
2022-11-02T21:53:56.908Z,7.40
2022-11-02T21:56:28.119Z,7.40
2022-11-02T21:58:55.934Z,7.50
2022-11-02T22:01:43.982Z,7.50
2022-11-02T22:04:25.574Z,7.50
2022-11-02T22:06:52.953Z,7.50
2022-11-02T22:09:19.887Z,7.50
2022-11-02T22:11:46.923Z,7.50
2022-11-02T22:14:14.273Z,7.50
2022-11-02T22:16:42.595Z,7.50
2022-11-02T22:19:13.430Z,7.50
2022-11-02T22:21:42.196Z,7.50
2022-11-02T22:24:09.822Z,7.60
2022-11-02T22:26:37.632Z,7.60
2022-11-02T22:29:05.356Z,7.50
2022-11-02T22:31:34.424Z,7.50
2022-11-02T22:34:03.199Z,7.50
2022-11-02T22:36:31.936Z,7.50
2022-11-02T22:39:00.350Z,7.50
2022-11-02T22:41:37.225Z,7.40
2022-11-02T22:44:03.851Z,7.40
2022-11-02T22:46:34.455Z,7.30
2022-11-02T22:49:02.703Z,7.30
2022-11-02T22:51:31.264Z,7.30
2022-11-02T22:54:04.426Z,7.10
2022-11-02T22:56:31.828Z,7.00
2022-11-02T22:58:59.145Z,7.00
2022-11-02T23:01:27.943Z,7.00
2022-11-02T23:03:55.108Z,7.00
2022-11-02T23:06:22.807Z,7.00
2022-11-02T23:08:54.484Z,7.10
2022-11-02T23:11:30.333Z,7.10
2022-11-02T23:13:57.011Z,7.00
2022-11-02T23:16:43.780Z,7.00
2022-11-02T23:19:31.450Z,7.10
2022-11-02T23:22:21.160Z,7.00
2022-11-02T23:25:09.119Z,6.90
2022-11-02T23:27:57.380Z,6.80
2022-11-02T23:30:47.438Z,6.90
2022-11-02T23:33:14.412Z,6.90
2022-11-02T23:35:59.913Z,6.80
2022-11-02T23:38:49.433Z,6.80
2022-11-02T23:41:17.325Z,6.80
2022-11-02T23:43:44.050Z,6.70
2022-11-02T23:46:11.531Z,6.70
2022-11-02T23:48:38.196Z,6.70
2022-11-02T23:51:23.546Z,6.80
2022-11-02T23:54:08.951Z,6.80
2022-11-02T23:56:44.758Z,6.90
2022-11-02T23:59:17.006Z,6.90
